Terminal Aerodrome Forecast
Issued by NWS

Home | Current Version | Previous Version | Text Only | Print | Product List | Glossary On
Versions: 1 2 3 4 5 6 7 8 9 10 11 12 13 14 15 16 17
000
FTUS41 KBOX 261740
TAFBAF
TAF
KBAF 261740Z 2618/2718 02007KT P6SM VCSH OVC008
     FM270000 02004KT 5SM BR OVC008
     FM271000 VRB03KT 2SM BR OVC008
     FM271300 00000KT P6SM BKN010
     FM271700 15005KT P6SM BKN015=

USA.gov is the U.S. government's official web portal to all federal, state and local government web resources and services.